Aérodrome :
LOGIN :

S'inscrire | Disclaimer

   EN    FR    IT 

 










Légende :    VFR   VFR Marginal   IFR   IFR Intensif   IFR Très Intensif
Visi : 
Plafond : 
>= 8 km
>= 3000ft
5 à 8 km
1000 à 3000 ft
1500m à 5 km
500 à 1000 ft
800 à 1500m
200 à 500 ft
< 800m
< 200 ft
Symboles :   Orages  Brouillard  Fortes neiges  Fortes précipitations  Vent > 20 kt
SIGMETs :   Divers  Orages  Givrage  Turbulence  Onde Orograph.  Cendres Volcan.







- Altitude de l'aérodrome : 10 ft
- Code IATA : TTU


GMTN - Saniat R'Mel

DERNIER METAR :
  • 220000Z AUTO 27010KT R24///// /// 15/11 Q1006

METARs EXPIRÉS :
  • 212300Z AUTO 24011KT 210V280 R24///// /// 16/12 Q1006
  • 212200Z 24012KT 8000 R24///// FEW023 SCT050 BKN100 15/12 Q1007 NOSIG

TAF N/A
Pas de NOTAMs connus pour ce terrain.
2 SIGMETs publiés pour la FIR Casablanca (GMMM) :
 
Onde orographique forte
GMMM SIGMET O4 VALID 220230/220630 GMMC
GMMM CASABLANCA FIR SEV MTW FCST WI N3304 W00257 - N3054 W00725 - N 3140 W00745 N3403 W00350 - N3304 W00257 FL050/180 STNR NC=
Onde orographique forte
GMMM SIGMET O3 VALID 212230/220230 GMMC
GMMM CASABLANCA FIR SEV MTW FCST WI N3304 W00257 - N3054 W00725 - N 3140 W00745 N3403 W00350 - N3304 W00257 FL050/180 STNR NC=



MET'MAP, la Météo Aéronautique d'un coup d'oeil ! - Copyright ORBIFLY Décembre 2007 - Disclaimer

ORBIFLY MET'MAP TEAM :

Programmation & Développement : Alexandra Zaïnal
Conception & Développement : Baudouin d'Aumeries
Co-Programmation & Développement : Marc-Olivier Méhu
Soutien technique & logistique : Manuel Goepfert

Contact : metmap@orbifly.com




SOURCES & CREDITS :

   NOAA